Time,TemperatureF,DewpointF,PressureIn,WindDirection,WindDirectionDegrees,WindSpeedMPH,WindSpeedGustMPH,Humidity,HourlyPrecipIn,Conditions,Clouds,dailyrainin,SoftwareType,DateUTC
2013-09-19 00:00:00,53.2,45.2,29.72,South,189,14.0,17.0,74,0.00,CLR,CLR,0.00,WeatherDisplay:10.37,2013-09-18 23:00:00,
2013-09-19 00:10:00,53.8,44.9,29.73,SW,216,15.0,20.0,72,0.00,CLR,CLR,0.00,WeatherDisplay:10.37,2013-09-18 23:10:00,
2013-09-19 00:20:00,54.0,44.8,29.72,SSW,211,14.0,20.0,71,0.00,CLR,CLR,0.00,WeatherDisplay:10.37,2013-09-18 23:20:00,
2013-09-19 00:30:00,54.0,44.8,29.73,SW,218,18.0,21.0,71,0.00,CLR,CLR,0.00,WeatherDisplay:10.37,2013-09-18 23:30:00,
2013-09-19 00:40:00,53.6,44.4,29.73,SSW,209,16.0,21.0,71,0.00,CLR,CLR,0.00,WeatherDisplay:10.37,2013-09-18 23:40:00,
2013-09-19 00:50:00,53.6,44.8,29.72,SSW,212,14.0,20.0,72,0.00,CLR,CLR,0.00,WeatherDisplay:10.37,2013-09-18 23:50:00,
2013-09-19 01:00:00,53.4,45.0,29.71,South,188,14.0,18.0,73,0.00,CLR,CLR,0.00,WeatherDisplay:10.37,2013-09-19 00:00:00,
2013-09-19 01:10:00,53.2,45.2,29.71,South,191,9.0,17.0,74,0.00,CLR,CLR,0.00,WeatherDisplay:10.37,2013-09-19 00:10:00,
2013-09-19 01:20:00,52.9,44.8,29.69,South,184,12.0,15.0,74,0.00,CLR,CLR,0.00,WeatherDisplay:10.37,2013-09-19 00:20:00,
2013-09-19 01:30:00,53.1,44.6,29.68,South,184,15.0,20.0,73,0.00,CLR,CLR,0.00,WeatherDisplay:10.37,2013-09-19 00:30:00,
2013-09-19 01:40:00,53.2,44.4,29.68,SSE,167,17.0,23.0,72,0.00,CLR,CLR,0.00,WeatherDisplay:10.37,2013-09-19 00:40:00,
2013-09-19 01:50:00,53.4,45.0,29.67,South,174,14.0,21.0,73,0.00,CLR,CLR,0.00,WeatherDisplay:10.37,2013-09-19 00:50:00,
2013-09-19 02:00:00,53.1,45.0,29.67,South,180,14.0,21.0,74,0.00,CLR,CLR,0.00,WeatherDisplay:10.37,2013-09-19 01:00:00,
2013-09-19 02:10:00,52.9,44.8,29.66,South,183,16.0,21.0,74,0.00,CLR,CLR,0.00,WeatherDisplay:10.37,2013-09-19 01:10:00,
2013-09-19 02:20:00,52.7,45.0,29.65,South,179,18.0,23.0,75,0.00,CLR,CLR,0.00,WeatherDisplay:10.37,2013-09-19 01:20:00,
2013-09-19 02:30:00,52.5,44.8,29.64,South,171,20.0,27.0,75,0.00,CLR,CLR,0.00,WeatherDisplay:10.37,2013-09-19 01:30:00,
2013-09-19 02:40:00,52.3,45.0,29.63,South,176,18.0,25.0,76,0.00,CLR,CLR,0.00,WeatherDisplay:10.37,2013-09-19 01:40:00,
2013-09-19 02:50:00,52.3,45.0,29.62,South,174,18.0,27.0,76,0.00,CLR,CLR,0.00,WeatherDisplay:10.37,2013-09-19 01:50:00,
2013-09-19 03:00:00,52.3,45.3,29.62,South,174,15.0,21.0,77,0.00,CLR,CLR,0.00,WeatherDisplay:10.37,2013-09-19 02:00:00,
2013-09-19 03:10:00,52.3,46.0,29.61,South,175,15.0,20.0,79,0.00,CLR,CLR,0.00,WeatherDisplay:10.37,2013-09-19 02:10:00,
2013-09-19 03:20:00,52.2,45.8,29.58,SSE,168,17.0,21.0,79,0.00,CLR,CLR,0.00,WeatherDisplay:10.37,2013-09-19 02:20:00,
2013-09-19 03:30:00,52.2,45.8,29.58,South,177,20.0,25.0,79,0.00,CLR,CLR,0.00,WeatherDisplay:10.37,2013-09-19 02:30:00,
2013-09-19 03:40:00,52.2,46.2,29.57,South,182,21.0,26.0,80,0.00,CLR,CLR,0.00,WeatherDisplay:10.37,2013-09-19 02:40:00,
2013-09-19 03:50:00,52.2,45.8,29.57,South,178,20.0,26.0,79,0.00,CLR,CLR,0.00,WeatherDisplay:10.37,2013-09-19 02:50:00,
2013-09-19 04:00:00,52.0,46.0,29.55,South,178,16.0,23.0,80,0.00,CLR,CLR,0.00,WeatherDisplay:10.37,2013-09-19 03:00:00,
2013-09-19 04:10:00,51.8,46.5,29.53,SSE,162,16.0,21.0,82,0.00,CLR,CLR,0.00,WeatherDisplay:10.37,2013-09-19 03:10:00,
2013-09-19 04:20:00,51.8,46.5,29.52,SSE,166,16.0,21.0,82,0.00,CLR,CLR,0.00,WeatherDisplay:10.37,2013-09-19 03:20:00,
2013-09-19 04:30:00,52.0,46.7,29.52,SSE,154,16.0,23.0,82,0.00,CLR,CLR,0.00,WeatherDisplay:10.37,2013-09-19 03:30:00,
2013-09-19 04:40:00,52.0,46.7,29.51,South,177,18.0,23.0,82,0.00,CLR,CLR,0.00,WeatherDisplay:10.37,2013-09-19 03:40:00,
2013-09-19 04:50:00,51.7,47.1,29.49,SSE,163,16.0,25.0,84,0.02,RA,RA,0.02,WeatherDisplay:10.37,2013-09-19 03:50:00,
2013-09-19 05:00:00,51.3,47.5,29.48,SSE,162,17.0,22.0,87,0.00,,,0.02,WeatherDisplay:10.37,2013-09-19 04:00:00,
2013-09-19 05:10:00,51.6,48.5,29.47,SSE,168,18.0,26.0,89,0.00,CLR,CLR,0.02,WeatherDisplay:10.37,2013-09-19 04:10:00,
2013-09-19 05:20:00,54.0,50.8,29.47,South,180,24.0,38.0,89,0.00,CLR,CLR,0.02,WeatherDisplay:10.37,2013-09-19 04:20:00,
2013-09-19 05:30:00,54.4,51.5,29.47,South,182,25.0,35.0,90,0.01,RA,RA,0.04,WeatherDisplay:10.37,2013-09-19 04:30:00,
2013-09-19 05:40:00,55.0,52.4,29.47,South,183,29.0,37.0,91,0.00,,,0.04,WeatherDisplay:10.37,2013-09-19 04:40:00,
2013-09-19 05:50:00,56.5,53.6,29.46,SSW,197,31.0,48.0,90,0.00,,,0.04,WeatherDisplay:10.37,2013-09-19 04:50:00,
2013-09-19 06:00:00,57.2,54.3,29.46,SSW,195,33.0,40.0,90,0.00,,,0.04,WeatherDisplay:10.37,2013-09-19 05:00:00,
2013-09-19 06:10:00,59.2,56.3,29.46,SW,218,33.0,44.0,90,0.02,RA,RA,0.06,WeatherDisplay:10.37,2013-09-19 05:10:00,
2013-09-19 06:20:00,60.6,58.0,29.45,SW,230,38.0,52.0,91,0.05,RA,RA,0.11,WeatherDisplay:10.37,2013-09-19 05:20:00,
2013-09-19 06:30:00,60.6,58.0,29.46,WSW,251,28.0,52.0,91,0.08,RA,RA,0.19,WeatherDisplay:10.37,2013-09-19 05:30:00,
2013-09-19 06:40:00,60.8,57.5,29.47,West,272,28.0,44.0,89,0.19,RA,RA,0.38,WeatherDisplay:10.37,2013-09-19 05:40:00,
2013-09-19 06:50:00,60.8,57.3,29.47,WNW,292,22.0,37.0,88,0.06,RA,RA,0.44,WeatherDisplay:10.37,2013-09-19 05:50:00,
2013-09-19 07:00:00,61.3,56.8,29.48,WNW,295,23.0,35.0,85,0.02,RA,RA,0.46,WeatherDisplay:10.37,2013-09-19 06:00:00,
2013-09-19 07:10:00,61.2,56.0,29.49,WNW,295,22.0,33.0,83,0.00,CLR,CLR,0.46,WeatherDisplay:10.37,2013-09-19 06:10:00,
2013-09-19 07:20:00,61.2,55.3,29.50,WNW,286,23.0,30.0,81,0.24,RA,RA,0.70,WeatherDisplay:10.37,2013-09-19 06:20:00,
2013-09-19 07:30:00,61.0,54.1,29.50,NW,308,23.0,31.0,78,0.28,RA,RA,0.98,WeatherDisplay:10.37,2013-09-19 06:30:00,
2013-09-19 07:40:00,60.4,53.5,29.51,WNW,300,24.0,37.0,78,0.56,RA,RA,1.53,WeatherDisplay:10.37,2013-09-19 06:40:00,
2013-09-19 07:50:00,60.3,53.0,29.52,WNW,295,29.0,37.0,77,0.13,RA,RA,1.66,WeatherDisplay:10.37,2013-09-19 06:50:00,
2013-09-19 08:00:00,60.3,52.7,29.52,WNW,293,26.0,37.0,76,0.02,RA,RA,1.69,WeatherDisplay:10.37,2013-09-19 07:00:00,
2013-09-19 08:10:00,60.1,52.1,29.53,WNW,288,24.0,39.0,75,0.56,RA,RA,2.24,WeatherDisplay:10.37,2013-09-19 07:10:00,
2013-09-19 08:20:00,60.1,52.1,29.53,WNW,289,26.0,40.0,75,0.41,RA,RA,2.66,WeatherDisplay:10.37,2013-09-19 07:20:00,
2013-09-19 08:30:00,60.1,52.1,29.54,WNW,285,21.0,36.0,75,0.02,RA,RA,2.68,WeatherDisplay:10.37,2013-09-19 07:30:00,
2013-09-19 08:40:00,60.4,52.5,29.55,WNW,300,23.0,34.0,75,0.01,RA,RA,2.69,WeatherDisplay:10.37,2013-09-19 07:40:00,
2013-09-19 08:50:00,60.6,52.6,29.55,WNW,302,18.0,26.0,75,0.00,CLR,CLR,2.69,WeatherDisplay:10.37,2013-09-19 07:50:00,
2013-09-19 09:00:00,61.2,52.1,29.56,WNW,300,17.0,25.0,72,0.00,CLR,CLR,2.69,WeatherDisplay:10.37,2013-09-19 08:00:00,
2013-09-19 09:10:00,61.1,51.6,29.56,WNW,300,18.0,30.0,71,0.00,CLR,CLR,2.69,WeatherDisplay:10.37,2013-09-19 08:10:00,
2013-09-19 09:20:00,60.8,51.7,29.56,WNW,294,20.0,30.0,72,0.00,CLR,CLR,2.69,WeatherDisplay:10.37,2013-09-19 08:20:00,
2013-09-19 09:30:00,61.8,52.7,29.56,WNW,287,21.0,37.0,72,0.01,RA,RA,2.70,WeatherDisplay:10.37,2013-09-19 08:30:00,
2013-09-19 09:40:00,61.3,51.1,29.57,NW,304,26.0,37.0,69,0.25,RA,RA,2.95,WeatherDisplay:10.37,2013-09-19 08:40:00,
2013-09-19 09:50:00,60.9,50.2,29.58,WNW,293,24.0,33.0,68,0.11,RA,RA,3.06,WeatherDisplay:10.37,2013-09-19 08:50:00,
2013-09-19 10:00:00,61.5,48.8,29.58,WNW,295,24.0,37.0,63,0.85,RA,RA,3.91,WeatherDisplay:10.37,2013-09-19 09:00:00,
2013-09-19 10:10:00,61.1,49.3,29.59,WNW,302,24.0,33.0,65,1.08,RA,RA,4.98,WeatherDisplay:10.37,2013-09-19 09:10:00,
2013-09-19 10:20:00,61.3,49.9,29.59,WNW,287,21.0,32.0,66,0.38,RA,RA,5.36,WeatherDisplay:10.37,2013-09-19 09:20:00,
2013-09-19 10:30:00,61.2,50.1,29.60,WNW,292,24.0,35.0,67,0.18,RA,RA,5.54,WeatherDisplay:10.37,2013-09-19 09:30:00,
2013-09-19 10:40:00,61.0,50.0,29.60,NW,311,20.0,33.0,67,0.60,RA,RA,6.14,WeatherDisplay:10.37,2013-09-19 09:40:00,
2013-09-19 10:50:00,62.0,49.7,29.61,WNW,296,26.0,36.0,64,0.64,RA,RA,6.78,WeatherDisplay:10.37,2013-09-19 09:50:00,
2013-09-19 11:00:00,61.1,48.4,29.62,WNW,293,28.0,38.0,63,0.48,RA,RA,7.26,WeatherDisplay:10.37,2013-09-19 10:00:00,
2013-09-19 11:10:00,61.2,48.5,29.62,WNW,298,29.0,37.0,63,1.22,RA,RA,8.48,WeatherDisplay:10.37,2013-09-19 10:10:00,
2013-09-19 11:20:00,62.0,49.2,29.63,WNW,287,26.0,37.0,63,1.68,RA,RA,10.16,WeatherDisplay:10.37,2013-09-19 10:20:00,
2013-09-19 11:30:00,62.2,47.6,29.63,WNW,300,24.0,37.0,59,0.63,RA,RA,10.78,WeatherDisplay:10.37,2013-09-19 10:30:00,
2013-09-19 11:40:00,62.2,47.7,29.63,NW,311,21.0,33.0,59,0.24,RA,RA,11.02,WeatherDisplay:10.37,2013-09-19 10:40:00,
2013-09-19 11:50:00,60.7,48.0,29.63,WNW,298,23.0,34.0,63,0.57,RA,RA,11.59,WeatherDisplay:10.37,2013-09-19 10:50:00,
2013-09-19 12:00:00,60.8,48.5,29.63,WNW,299,24.0,33.0,64,1.03,RA,RA,12.61,WeatherDisplay:10.37,2013-09-19 11:00:00,
2013-09-19 12:10:00,61.7,49.0,29.64,WNW,301,20.0,34.0,63,0.27,RA,RA,12.89,WeatherDisplay:10.37,2013-09-19 11:10:00,
2013-09-19 12:20:00,60.6,50.0,29.65,NW,304,22.0,37.0,68,0.27,RA,RA,13.16,WeatherDisplay:10.37,2013-09-19 11:20:00,
2013-09-19 12:30:00,61.5,50.1,29.64,WNW,296,20.0,37.0,66,0.00,,,13.16,WeatherDisplay:10.37,2013-09-19 11:30:00,
2013-09-19 12:40:00,62.7,49.9,29.65,WNW,293,23.0,33.0,63,0.09,RA,RA,13.25,WeatherDisplay:10.37,2013-09-19 11:40:00,
2013-09-19 12:50:00,61.7,50.3,29.65,WNW,301,21.0,36.0,66,0.56,RA,RA,13.81,WeatherDisplay:10.37,2013-09-19 11:50:00,
2013-09-19 13:00:00,62.7,50.3,29.65,WNW,301,21.0,32.0,64,0.17,RA,RA,13.97,WeatherDisplay:10.37,2013-09-19 12:00:00,
2013-09-19 13:10:00,60.7,50.1,29.65,West,279,28.0,34.0,68,0.35,RA,RA,14.33,WeatherDisplay:10.37,2013-09-19 12:10:00,
2013-09-19 13:20:00,60.2,49.6,29.66,NW,304,26.0,39.0,68,0.87,RA,RA,15.20,WeatherDisplay:10.37,2013-09-19 12:20:00,
2013-09-19 13:30:00,60.6,49.2,29.66,NW,306,29.0,37.0,66,1.04,RA,RA,16.24,WeatherDisplay:10.37,2013-09-19 12:30:00,
2013-09-19 13:40:00,61.0,48.7,29.66,WNW,302,28.0,37.0,64,1.22,RA,RA,17.46,WeatherDisplay:10.37,2013-09-19 12:40:00,
2013-09-19 13:50:00,61.9,48.7,29.67,WNW,298,25.0,37.0,62,1.16,RA,RA,18.61,WeatherDisplay:10.37,2013-09-19 12:50:00,
2013-09-19 14:00:00,61.1,47.5,29.66,WNW,292,29.0,40.0,61,1.32,RA,RA,19.94,WeatherDisplay:10.37,2013-09-19 13:00:00,
2013-09-19 14:10:00,60.7,46.7,29.67,NW,307,31.0,40.0,60,1.12,RA,RA,21.06,WeatherDisplay:10.37,2013-09-19 13:10:00,
2013-09-19 14:20:00,61.3,46.4,29.67,WNW,301,28.0,37.0,58,1.48,RA,RA,22.53,WeatherDisplay:10.37,2013-09-19 13:20:00,
2013-09-19 14:30:00,61.9,47.8,29.68,WNW,292,22.0,39.0,60,0.65,RA,RA,23.18,WeatherDisplay:10.37,2013-09-19 13:30:00,
2013-09-19 14:40:00,61.2,47.6,29.68,WNW,294,24.0,37.0,61,0.40,RA,RA,23.59,WeatherDisplay:10.37,2013-09-19 13:40:00,
2013-09-19 14:50:00,62.1,47.6,29.69,WNW,292,21.0,35.0,59,0.25,RA,RA,23.83,WeatherDisplay:10.37,2013-09-19 13:50:00,
2013-09-19 15:00:00,61.3,47.3,29.69,WNW,298,25.0,32.0,60,1.24,RA,RA,25.08,WeatherDisplay:10.37,2013-09-19 14:00:00,
2013-09-19 15:10:00,61.3,46.4,29.70,WNW,299,21.0,35.0,58,1.28,RA,RA,26.35,WeatherDisplay:10.37,2013-09-19 14:10:00,
2013-09-19 15:20:00,62.2,46.8,29.70,NW,307,18.0,35.0,57,0.91,RA,RA,27.26,WeatherDisplay:10.37,2013-09-19 14:20:00,
2013-09-19 15:30:00,61.7,46.3,29.70,NW,315,20.0,29.0,57,0.50,RA,RA,27.76,WeatherDisplay:10.37,2013-09-19 14:30:00,
2013-09-19 15:40:00,63.4,46.0,29.70,NW,311,18.0,29.0,53,0.31,RA,RA,28.06,WeatherDisplay:10.37,2013-09-19 14:40:00,
2013-09-19 15:50:00,63.1,45.7,29.70,NW,306,20.0,29.0,53,0.64,RA,RA,28.70,WeatherDisplay:10.37,2013-09-19 14:50:00,
2013-09-19 16:00:00,63.7,46.2,29.70,WNW,290,20.0,31.0,53,0.97,RA,RA,29.67,WeatherDisplay:10.37,2013-09-19 15:00:00,
2013-09-19 16:10:00,61.7,45.8,29.71,WNW,292,23.0,31.0,56,1.02,RA,RA,30.68,WeatherDisplay:10.37,2013-09-19 15:10:00,
2013-09-19 16:20:00,62.3,46.4,29.72,WNW,298,17.0,31.0,56,0.99,RA,RA,31.68,WeatherDisplay:10.37,2013-09-19 15:20:00,
2013-09-19 16:30:00,62.4,47.0,29.72,NW,307,17.0,29.0,57,0.17,RA,RA,31.84,WeatherDisplay:10.37,2013-09-19 15:30:00,
2013-09-19 16:40:00,63.3,46.4,29.73,NW,310,18.0,29.0,54,0.66,RA,RA,32.50,WeatherDisplay:10.37,2013-09-19 15:40:00,
2013-09-19 16:50:00,62.7,45.3,29.73,NW,306,21.0,29.0,53,0.86,RA,RA,33.37,WeatherDisplay:10.37,2013-09-19 15:50:00,
2013-09-19 17:00:00,61.5,45.1,29.74,NW,310,22.0,29.0,55,1.12,RA,RA,34.49,WeatherDisplay:10.37,2013-09-19 16:00:00,
2013-09-19 17:10:00,60.8,45.5,29.74,NW,307,21.0,34.0,57,1.29,RA,RA,35.78,WeatherDisplay:10.37,2013-09-19 16:10:00,
2013-09-19 17:20:00,60.3,45.4,29.75,WNW,296,17.0,27.0,58,0.48,RA,RA,36.26,WeatherDisplay:10.37,2013-09-19 16:20:00,
2013-09-19 17:30:00,61.2,45.8,29.75,WNW,303,12.0,30.0,57,0.14,RA,RA,36.40,WeatherDisplay:10.37,2013-09-19 16:30:00,
2013-09-19 17:40:00,61.8,45.9,29.76,NW,311,21.0,25.0,56,0.22,RA,RA,36.63,WeatherDisplay:10.37,2013-09-19 16:40:00,
2013-09-19 17:50:00,62.5,45.6,29.76,WNW,294,15.0,29.0,54,0.04,RA,RA,36.66,WeatherDisplay:10.37,2013-09-19 16:50:00,
2013-09-19 18:00:00,61.0,45.2,29.76,WNW,302,20.0,27.0,56,0.04,RA,RA,36.70,WeatherDisplay:10.37,2013-09-19 17:00:00,
2013-09-19 18:10:00,59.2,45.3,29.75,NW,315,18.0,27.0,60,0.00,CLR,CLR,36.70,WeatherDisplay:10.37,2013-09-19 17:10:00,
2013-09-19 18:20:00,58.5,44.2,29.77,NW,319,18.0,28.0,59,0.00,CLR,CLR,36.70,WeatherDisplay:10.37,2013-09-19 17:20:00,
2013-09-19 18:30:00,57.9,44.5,29.77,NW,314,18.0,26.0,61,0.00,CLR,CLR,36.70,WeatherDisplay:10.37,2013-09-19 17:30:00,
2013-09-19 18:40:00,58.3,45.3,29.78,NNW,327,16.0,23.0,62,0.00,CLR,CLR,36.70,WeatherDisplay:10.37,2013-09-19 17:40:00,
2013-09-19 18:50:00,57.9,45.4,29.79,NW,313,9.0,22.0,63,0.00,CLR,CLR,36.70,WeatherDisplay:10.37,2013-09-19 17:50:00,
2013-09-19 19:00:00,58.1,44.7,29.79,NW,309,12.0,21.0,61,0.00,CLR,CLR,36.70,WeatherDisplay:10.37,2013-09-19 18:00:00,
2013-09-19 19:10:00,57.7,44.8,29.80,NW,311,13.0,17.0,62,0.00,CLR,CLR,36.70,WeatherDisplay:10.37,2013-09-19 18:10:00,
2013-09-19 19:20:00,56.9,45.3,29.79,WNW,294,14.0,20.0,65,0.00,CLR,CLR,36.70,WeatherDisplay:10.37,2013-09-19 18:20:00,
2013-09-19 19:30:00,56.6,45.3,29.79,WNW,302,15.0,21.0,66,0.00,CLR,CLR,36.70,WeatherDisplay:10.37,2013-09-19 18:30:00,
2013-09-19 19:40:00,56.5,44.9,29.79,West,276,17.0,23.0,65,0.01,RA,RA,36.71,WeatherDisplay:10.37,2013-09-19 18:40:00,
2013-09-19 19:50:00,56.5,45.7,29.80,WNW,288,13.0,23.0,67,0.00,CLR,CLR,36.71,WeatherDisplay:10.37,2013-09-19 18:50:00,
2013-09-19 20:00:00,56.6,45.8,29.81,WNW,295,15.0,21.0,67,0.00,CLR,CLR,36.71,WeatherDisplay:10.37,2013-09-19 19:00:00,
2013-09-19 20:10:00,56.7,45.0,29.81,WNW,292,12.0,23.0,65,0.00,CLR,CLR,36.71,WeatherDisplay:10.37,2013-09-19 19:10:00,
2013-09-19 20:20:00,56.5,45.3,29.81,NW,309,15.0,22.0,66,0.00,CLR,CLR,36.71,WeatherDisplay:10.37,2013-09-19 19:20:00,
2013-09-19 20:30:00,56.5,45.3,29.81,NW,312,16.0,23.0,66,0.00,CLR,CLR,36.71,WeatherDisplay:10.37,2013-09-19 19:30:00,
2013-09-19 20:40:00,56.7,45.8,29.82,NW,311,12.0,23.0,67,0.00,CLR,CLR,36.71,WeatherDisplay:10.37,2013-09-19 19:40:00,
2013-09-19 20:50:00,56.7,45.8,29.82,NW,311,8.0,17.0,67,0.00,CLR,CLR,36.71,WeatherDisplay:10.37,2013-09-19 19:50:00,
2013-09-19 21:00:00,56.7,45.4,29.83,WNW,303,12.0,15.0,66,0.00,CLR,CLR,36.71,WeatherDisplay:10.37,2013-09-19 20:00:00,
2013-09-19 21:10:00,56.1,45.7,29.83,WNW,294,8.0,14.0,68,0.00,CLR,CLR,36.71,WeatherDisplay:10.37,2013-09-19 20:10:00,
2013-09-19 21:20:00,55.8,45.0,29.84,West,277,12.0,17.0,67,0.00,CLR,CLR,36.71,WeatherDisplay:10.37,2013-09-19 20:20:00,
2013-09-19 21:30:00,55.7,45.3,29.83,WNW,285,10.0,17.0,68,0.00,CLR,CLR,36.71,WeatherDisplay:10.37,2013-09-19 20:30:00,
2013-09-19 21:40:00,55.7,45.3,29.83,West,278,9.0,16.0,68,0.00,CLR,CLR,36.71,WeatherDisplay:10.37,2013-09-19 20:40:00,
2013-09-19 21:50:00,55.7,45.3,29.84,NW,312,8.0,16.0,68,0.00,CLR,CLR,36.71,WeatherDisplay:10.37,2013-09-19 20:50:00,
2013-09-19 22:00:00,55.8,45.4,29.84,WNW,288,8.0,15.0,68,0.00,CLR,CLR,36.71,WeatherDisplay:10.37,2013-09-19 21:00:00,
2013-09-19 22:10:00,55.6,45.6,29.84,West,281,9.0,15.0,69,0.00,CLR,CLR,36.71,WeatherDisplay:10.37,2013-09-19 21:10:00,
2013-09-19 22:20:00,55.4,45.8,29.84,WNW,285,9.0,15.0,70,0.00,CLR,CLR,36.71,WeatherDisplay:10.37,2013-09-19 21:20:00,
2013-09-19 22:30:00,55.4,46.5,29.85,WNW,298,13.0,15.0,72,0.00,CLR,CLR,36.71,WeatherDisplay:10.37,2013-09-19 21:30:00,
2013-09-19 22:40:00,55.4,46.5,29.85,WNW,289,10.0,17.0,72,0.00,CLR,CLR,36.71,WeatherDisplay:10.37,2013-09-19 21:40:00,
2013-09-19 22:50:00,55.4,46.2,29.85,WNW,293,10.0,17.0,71,0.00,CLR,CLR,36.71,WeatherDisplay:10.37,2013-09-19 21:50:00,
2013-09-19 23:00:00,55.4,45.4,29.85,WNW,288,12.0,16.0,69,0.00,CLR,CLR,36.71,WeatherDisplay:10.37,2013-09-19 22:00:00,
2013-09-19 23:10:00,55.8,45.0,29.85,WNW,291,13.0,17.0,67,0.00,CLR,CLR,36.71,WeatherDisplay:10.37,2013-09-19 22:10:00,
2013-09-19 23:20:00,56.1,45.2,29.85,WNW,299,9.0,17.0,67,0.00,CLR,CLR,36.71,WeatherDisplay:10.37,2013-09-19 22:20:00,
2013-09-19 23:30:00,56.3,45.5,29.85,WNW,290,9.0,15.0,67,0.00,CLR,CLR,36.71,WeatherDisplay:10.37,2013-09-19 22:30:00,
2013-09-19 23:40:00,56.1,44.9,29.86,WNW,291,7.0,13.0,66,0.00,CLR,CLR,36.71,WeatherDisplay:10.37,2013-09-19 22:40:00,
2013-09-19 23:50:00,55.6,44.8,29.85,WNW,284,8.0,13.0,67,0.00,CLR,CLR,36.71,WeatherDisplay:10.37,2013-09-19 22:50:00,